Аэропорт: Актау. Актау

ICAO: UATE

METAR:
2024-05-18 17:00:00
UATE 181700Z 28006MPS CAVOK 14/11 Q1017 NOSIG RMK QFE761/1015
TAF:
2024-05-18 11:00:00
TAF UATE 181100Z 1812/1912 30006G12MPS 9999 SCT011 BKN033CB TX18/1909Z TN10/1902Z